sensor_id;sensor_type;location;lat;lon;timestamp;P1;durP1;ratioP1;P2;durP2;ratioP2
15616;SDS011;7908;51.688;7.130;2022-12-10T00:00:07;61.70;;;32.03;;
15616;SDS011;7908;51.688;7.130;2022-12-10T00:02:37;58.67;;;34.33;;
15616;SDS011;7908;51.688;7.130;2022-12-10T00:05:06;63.60;;;33.87;;
15616;SDS011;7908;51.688;7.130;2022-12-10T00:07:38;62.63;;;35.20;;
15616;SDS011;7908;51.688;7.130;2022-12-10T00:10:06;62.23;;;34.40;;
15616;SDS011;7908;51.688;7.130;2022-12-10T00:12:37;65.87;;;36.37;;
15616;SDS011;7908;51.688;7.130;2022-12-10T00:15:06;63.70;;;34.90;;
15616;SDS011;7908;51.688;7.130;2022-12-10T00:17:35;68.23;;;34.90;;
15616;SDS011;7908;51.688;7.130;2022-12-10T00:20:04;66.10;;;36.27;;
15616;SDS011;7908;51.688;7.130;2022-12-10T00:22:34;64.83;;;35.57;;
15616;SDS011;7908;51.688;7.130;2022-12-10T00:25:05;69.70;;;35.80;;
15616;SDS011;7908;51.688;7.130;2022-12-10T00:27:35;61.33;;;31.93;;
15616;SDS011;7908;51.688;7.130;2022-12-10T00:30:03;60.60;;;32.90;;
15616;SDS011;7908;51.688;7.130;2022-12-10T00:32:33;65.50;;;36.13;;
15616;SDS011;7908;51.688;7.130;2022-12-10T00:35:02;60.87;;;32.47;;
15616;SDS011;7908;51.688;7.130;2022-12-10T00:37:32;64.30;;;35.20;;
15616;SDS011;7908;51.688;7.130;2022-12-10T00:40:01;62.80;;;32.73;;
15616;SDS011;7908;51.688;7.130;2022-12-10T00:42:31;58.70;;;29.97;;
15616;SDS011;7908;51.688;7.130;2022-12-10T00:45:00;63.67;;;35.07;;
15616;SDS011;7908;51.688;7.130;2022-12-10T00:47:29;61.93;;;34.00;;
15616;SDS011;7908;51.688;7.130;2022-12-10T00:49:58;58.17;;;32.70;;
15616;SDS011;7908;51.688;7.130;2022-12-10T00:52:27;57.63;;;34.50;;
15616;SDS011;7908;51.688;7.130;2022-12-10T00:54:56;57.83;;;32.93;;
15616;SDS011;7908;51.688;7.130;2022-12-10T00:57:24;60.70;;;34.53;;
15616;SDS011;7908;51.688;7.130;2022-12-10T00:59:54;59.83;;;33.80;;
15616;SDS011;7908;51.688;7.130;2022-12-10T01:02:22;55.47;;;34.57;;
15616;SDS011;7908;51.688;7.130;2022-12-10T01:04:52;60.90;;;33.57;;
15616;SDS011;7908;51.688;7.130;2022-12-10T01:07:20;56.33;;;31.37;;
15616;SDS011;7908;51.688;7.130;2022-12-10T01:09:49;57.40;;;32.43;;
15616;SDS011;7908;51.688;7.130;2022-12-10T01:12:17;62.50;;;34.43;;
15616;SDS011;7908;51.688;7.130;2022-12-10T01:14:46;53.77;;;32.03;;
15616;SDS011;7908;51.688;7.130;2022-12-10T01:17:16;56.20;;;31.67;;
15616;SDS011;7908;51.688;7.130;2022-12-10T01:19:44;57.33;;;33.03;;
15616;SDS011;7908;51.688;7.130;2022-12-10T01:22:13;60.97;;;33.60;;
15616;SDS011;7908;51.688;7.130;2022-12-10T01:24:44;56.30;;;32.63;;
15616;SDS011;7908;51.688;7.130;2022-12-10T01:27:12;57.70;;;33.97;;
15616;SDS011;7908;51.688;7.130;2022-12-10T01:29:41;58.40;;;33.73;;
15616;SDS011;7908;51.688;7.130;2022-12-10T01:32:09;56.93;;;32.23;;
15616;SDS011;7908;51.688;7.130;2022-12-10T01:34:39;54.87;;;32.17;;
15616;SDS011;7908;51.688;7.130;2022-12-10T01:37:08;69.77;;;37.77;;
15616;SDS011;7908;51.688;7.130;2022-12-10T01:39:37;63.70;;;36.30;;
15616;SDS011;7908;51.688;7.130;2022-12-10T01:42:05;58.33;;;32.73;;
15616;SDS011;7908;51.688;7.130;2022-12-10T01:45:02;64.70;;;35.70;;
15616;SDS011;7908;51.688;7.130;2022-12-10T01:47:40;62.43;;;33.50;;
15616;SDS011;7908;51.688;7.130;2022-12-10T01:50:10;55.73;;;30.77;;
15616;SDS011;7908;51.688;7.130;2022-12-10T01:52:39;59.80;;;33.33;;
15616;SDS011;7908;51.688;7.130;2022-12-10T01:55:42;60.33;;;32.83;;
15616;SDS011;7908;51.688;7.130;2022-12-10T01:58:14;54.70;;;31.90;;
15616;SDS011;7908;51.688;7.130;2022-12-10T02:00:46;60.60;;;33.73;;
15616;SDS011;7908;51.688;7.130;2022-12-10T02:03:27;59.30;;;34.23;;
15616;SDS011;7908;51.688;7.130;2022-12-10T02:06:07;63.40;;;35.70;;
15616;SDS011;7908;51.688;7.130;2022-12-10T02:08:44;74.23;;;41.13;;
15616;SDS011;7908;51.688;7.130;2022-12-10T02:11:20;68.00;;;37.50;;
15616;SDS011;7908;51.688;7.130;2022-12-10T02:13:55;62.03;;;35.50;;
15616;SDS011;7908;51.688;7.130;2022-12-10T02:16:29;66.43;;;37.40;;
15616;SDS011;7908;51.688;7.130;2022-12-10T02:19:03;61.93;;;35.47;;
15616;SDS011;7908;51.688;7.130;2022-12-10T02:21:49;72.53;;;40.03;;
15616;SDS011;7908;51.688;7.130;2022-12-10T02:24:21;65.83;;;39.33;;
15616;SDS011;7908;51.688;7.130;2022-12-10T02:26:56;70.87;;;41.37;;
15616;SDS011;7908;51.688;7.130;2022-12-10T02:29:31;79.77;;;47.67;;
15616;SDS011;7908;51.688;7.130;2022-12-10T02:32:03;72.30;;;40.83;;
15616;SDS011;7908;51.688;7.130;2022-12-10T02:34:34;66.63;;;40.70;;
15616;SDS011;7908;51.688;7.130;2022-12-10T02:37:09;61.43;;;38.10;;
15616;SDS011;7908;51.688;7.130;2022-12-10T02:39:43;60.97;;;36.47;;
15616;SDS011;7908;51.688;7.130;2022-12-10T02:42:15;62.40;;;37.83;;
15616;SDS011;7908;51.688;7.130;2022-12-10T02:44:47;58.23;;;32.47;;
15616;SDS011;7908;51.688;7.130;2022-12-10T02:47:16;62.07;;;36.47;;
15616;SDS011;7908;51.688;7.130;2022-12-10T02:49:47;57.93;;;36.07;;
15616;SDS011;7908;51.688;7.130;2022-12-10T02:52:19;57.70;;;35.07;;
15616;SDS011;7908;51.688;7.130;2022-12-10T02:54:50;54.90;;;33.20;;
15616;SDS011;7908;51.688;7.130;2022-12-10T02:57:23;56.00;;;36.73;;
15616;SDS011;7908;51.688;7.130;2022-12-10T03:00:03;61.80;;;36.43;;
15616;SDS011;7908;51.688;7.130;2022-12-10T03:02:39;54.43;;;32.70;;
15616;SDS011;7908;51.688;7.130;2022-12-10T03:05:27;55.57;;;32.70;;
15616;SDS011;7908;51.688;7.130;2022-12-10T03:08:03;58.67;;;35.03;;
15616;SDS011;7908;51.688;7.130;2022-12-10T03:10:39;61.77;;;38.60;;
15616;SDS011;7908;51.688;7.130;2022-12-10T03:13:12;59.30;;;36.77;;
15616;SDS011;7908;51.688;7.130;2022-12-10T03:15:45;59.23;;;36.40;;
15616;SDS011;7908;51.688;7.130;2022-12-10T03:18:15;59.93;;;36.30;;
15616;SDS011;7908;51.688;7.130;2022-12-10T03:20:46;57.47;;;35.20;;
15616;SDS011;7908;51.688;7.130;2022-12-10T03:23:18;61.80;;;35.53;;
15616;SDS011;7908;51.688;7.130;2022-12-10T03:25:47;62.50;;;37.03;;
15616;SDS011;7908;51.688;7.130;2022-12-10T03:28:18;59.37;;;36.10;;
15616;SDS011;7908;51.688;7.130;2022-12-10T03:30:50;61.93;;;36.27;;
15616;SDS011;7908;51.688;7.130;2022-12-10T03:33:20;59.93;;;37.37;;
15616;SDS011;7908;51.688;7.130;2022-12-10T03:35:49;62.97;;;35.47;;
15616;SDS011;7908;51.688;7.130;2022-12-10T03:38:18;58.37;;;35.67;;
15616;SDS011;7908;51.688;7.130;2022-12-10T03:40:47;64.20;;;39.10;;
15616;SDS011;7908;51.688;7.130;2022-12-10T03:43:16;63.50;;;39.57;;
15616;SDS011;7908;51.688;7.130;2022-12-10T03:45:44;60.43;;;35.30;;
15616;SDS011;7908;51.688;7.130;2022-12-10T03:48:14;59.97;;;37.13;;
15616;SDS011;7908;51.688;7.130;2022-12-10T03:50:42;61.23;;;35.23;;
15616;SDS011;7908;51.688;7.130;2022-12-10T03:53:11;65.67;;;39.43;;
15616;SDS011;7908;51.688;7.130;2022-12-10T03:55:40;65.07;;;39.20;;
15616;SDS011;7908;51.688;7.130;2022-12-10T03:58:09;61.73;;;36.33;;
15616;SDS011;7908;51.688;7.130;2022-12-10T04:00:45;64.60;;;35.60;;
15616;SDS011;7908;51.688;7.130;2022-12-10T04:03:15;62.80;;;36.80;;
15616;SDS011;7908;51.688;7.130;2022-12-10T04:05:43;65.77;;;38.93;;
15616;SDS011;7908;51.688;7.130;2022-12-10T04:08:12;63.87;;;37.93;;
15616;SDS011;7908;51.688;7.130;2022-12-10T04:10:40;60.43;;;34.87;;
15616;SDS011;7908;51.688;7.130;2022-12-10T04:13:09;69.13;;;39.60;;
15616;SDS011;7908;51.688;7.130;2022-12-10T04:15:56;65.43;;;35.47;;
15616;SDS011;7908;51.688;7.130;2022-12-10T04:18:43;58.13;;;34.50;;
15616;SDS011;7908;51.688;7.130;2022-12-10T04:21:12;57.80;;;32.20;;
15616;SDS011;7908;51.688;7.130;2022-12-10T04:23:58;60.03;;;36.30;;
15616;SDS011;7908;51.688;7.130;2022-12-10T04:26:44;56.37;;;33.60;;
15616;SDS011;7908;51.688;7.130;2022-12-10T04:29:22;58.50;;;36.47;;
15616;SDS011;7908;51.688;7.130;2022-12-10T04:31:52;61.00;;;36.20;;
15616;SDS011;7908;51.688;7.130;2022-12-10T04:34:23;62.80;;;36.23;;
15616;SDS011;7908;51.688;7.130;2022-12-10T04:36:52;58.83;;;36.47;;
15616;SDS011;7908;51.688;7.130;2022-12-10T04:39:21;62.93;;;38.37;;
15616;SDS011;7908;51.688;7.130;2022-12-10T04:41:50;58.30;;;35.20;;
15616;SDS011;7908;51.688;7.130;2022-12-10T04:44:19;59.90;;;31.53;;
15616;SDS011;7908;51.688;7.130;2022-12-10T04:46:48;54.40;;;30.00;;
15616;SDS011;7908;51.688;7.130;2022-12-10T04:49:16;59.07;;;32.33;;
15616;SDS011;7908;51.688;7.130;2022-12-10T04:51:46;61.13;;;33.63;;
15616;SDS011;7908;51.688;7.130;2022-12-10T04:54:15;56.43;;;31.27;;
15616;SDS011;7908;51.688;7.130;2022-12-10T04:56:43;57.97;;;32.70;;
15616;SDS011;7908;51.688;7.130;2022-12-10T04:59:12;55.30;;;30.23;;
15616;SDS011;7908;51.688;7.130;2022-12-10T05:01:42;59.37;;;32.93;;
15616;SDS011;7908;51.688;7.130;2022-12-10T05:04:11;60.77;;;32.47;;
15616;SDS011;7908;51.688;7.130;2022-12-10T05:06:41;58.67;;;31.10;;
15616;SDS011;7908;51.688;7.130;2022-12-10T05:09:12;61.50;;;30.67;;
15616;SDS011;7908;51.688;7.130;2022-12-10T05:11:41;59.70;;;32.07;;
15616;SDS011;7908;51.688;7.130;2022-12-10T05:14:11;62.50;;;32.10;;
15616;SDS011;7908;51.688;7.130;2022-12-10T05:16:40;55.80;;;32.10;;
15616;SDS011;7908;51.688;7.130;2022-12-10T05:19:09;62.47;;;31.47;;
15616;SDS011;7908;51.688;7.130;2022-12-10T05:21:38;59.37;;;30.83;;
15616;SDS011;7908;51.688;7.130;2022-12-10T05:24:25;60.80;;;30.57;;
15616;SDS011;7908;51.688;7.130;2022-12-10T05:26:54;51.80;;;26.67;;
15616;SDS011;7908;51.688;7.130;2022-12-10T05:29:24;57.00;;;30.27;;
15616;SDS011;7908;51.688;7.130;2022-12-10T05:31:53;56.27;;;27.67;;
15616;SDS011;7908;51.688;7.130;2022-12-10T05:34:21;59.80;;;29.60;;
15616;SDS011;7908;51.688;7.130;2022-12-10T05:36:53;55.57;;;29.53;;
15616;SDS011;7908;51.688;7.130;2022-12-10T05:39:22;56.87;;;30.37;;
15616;SDS011;7908;51.688;7.130;2022-12-10T05:41:52;61.37;;;30.40;;
15616;SDS011;7908;51.688;7.130;2022-12-10T05:44:20;59.10;;;30.77;;
15616;SDS011;7908;51.688;7.130;2022-12-10T05:46:49;55.60;;;29.23;;
15616;SDS011;7908;51.688;7.130;2022-12-10T05:49:19;65.67;;;30.97;;
15616;SDS011;7908;51.688;7.130;2022-12-10T05:51:48;61.80;;;30.10;;
15616;SDS011;7908;51.688;7.130;2022-12-10T05:54:22;60.60;;;32.20;;
15616;SDS011;7908;51.688;7.130;2022-12-10T05:56:52;64.97;;;31.57;;
15616;SDS011;7908;51.688;7.130;2022-12-10T05:59:20;61.07;;;30.30;;
15616;SDS011;7908;51.688;7.130;2022-12-10T06:01:49;60.73;;;29.70;;
15616;SDS011;7908;51.688;7.130;2022-12-10T06:04:18;59.07;;;30.40;;
15616;SDS011;7908;51.688;7.130;2022-12-10T06:06:46;58.00;;;28.77;;
15616;SDS011;7908;51.688;7.130;2022-12-10T06:09:16;56.43;;;29.47;;
15616;SDS011;7908;51.688;7.130;2022-12-10T06:11:44;68.53;;;32.27;;
15616;SDS011;7908;51.688;7.130;2022-12-10T06:14:14;67.77;;;32.33;;
15616;SDS011;7908;51.688;7.130;2022-12-10T06:16:43;74.63;;;33.57;;
15616;SDS011;7908;51.688;7.130;2022-12-10T06:19:11;61.63;;;28.60;;
15616;SDS011;7908;51.688;7.130;2022-12-10T06:21:40;58.40;;;29.27;;
15616;SDS011;7908;51.688;7.130;2022-12-10T06:24:08;60.00;;;29.47;;
15616;SDS011;7908;51.688;7.130;2022-12-10T06:26:37;60.07;;;30.60;;
15616;SDS011;7908;51.688;7.130;2022-12-10T06:29:05;54.03;;;28.00;;
15616;SDS011;7908;51.688;7.130;2022-12-10T06:31:36;64.87;;;31.60;;
15616;SDS011;7908;51.688;7.130;2022-12-10T06:34:04;66.17;;;32.40;;
15616;SDS011;7908;51.688;7.130;2022-12-10T06:36:33;58.10;;;28.17;;
15616;SDS011;7908;51.688;7.130;2022-12-10T06:39:02;57.50;;;27.90;;
15616;SDS011;7908;51.688;7.130;2022-12-10T06:41:30;57.20;;;28.30;;
15616;SDS011;7908;51.688;7.130;2022-12-10T06:43:59;59.40;;;27.87;;
15616;SDS011;7908;51.688;7.130;2022-12-10T06:46:27;61.03;;;30.43;;
15616;SDS011;7908;51.688;7.130;2022-12-10T06:48:57;58.63;;;26.73;;
15616;SDS011;7908;51.688;7.130;2022-12-10T06:51:25;55.50;;;27.70;;
15616;SDS011;7908;51.688;7.130;2022-12-10T06:53:54;59.47;;;27.90;;
15616;SDS011;7908;51.688;7.130;2022-12-10T06:56:23;60.00;;;28.20;;
15616;SDS011;7908;51.688;7.130;2022-12-10T06:58:51;55.10;;;26.47;;
15616;SDS011;7908;51.688;7.130;2022-12-10T07:01:21;47.50;;;23.33;;
15616;SDS011;7908;51.688;7.130;2022-12-10T07:03:54;53.93;;;25.93;;
15616;SDS011;7908;51.688;7.130;2022-12-10T07:06:26;55.50;;;25.43;;
15616;SDS011;7908;51.688;7.130;2022-12-10T07:08:55;62.50;;;28.20;;
15616;SDS011;7908;51.688;7.130;2022-12-10T07:11:24;55.83;;;27.60;;
15616;SDS011;7908;51.688;7.130;2022-12-10T07:13:53;62.13;;;28.17;;
15616;SDS011;7908;51.688;7.130;2022-12-10T07:16:22;60.90;;;29.13;;
15616;SDS011;7908;51.688;7.130;2022-12-10T07:18:52;58.93;;;26.87;;
15616;SDS011;7908;51.688;7.130;2022-12-10T07:21:23;58.30;;;27.80;;
15616;SDS011;7908;51.688;7.130;2022-12-10T07:23:54;67.00;;;31.73;;
15616;SDS011;7908;51.688;7.130;2022-12-10T07:26:24;56.73;;;28.20;;
15616;SDS011;7908;51.688;7.130;2022-12-10T07:28:55;63.40;;;30.83;;
15616;SDS011;7908;51.688;7.130;2022-12-10T07:31:25;65.57;;;29.77;;
15616;SDS011;7908;51.688;7.130;2022-12-10T07:33:54;62.00;;;27.33;;
15616;SDS011;7908;51.688;7.130;2022-12-10T07:36:25;67.63;;;28.53;;
15616;SDS011;7908;51.688;7.130;2022-12-10T07:38:55;65.13;;;30.33;;
15616;SDS011;7908;51.688;7.130;2022-12-10T07:41:24;65.03;;;30.07;;
15616;SDS011;7908;51.688;7.130;2022-12-10T07:43:53;70.10;;;34.13;;
15616;SDS011;7908;51.688;7.130;2022-12-10T07:46:22;74.67;;;34.70;;
15616;SDS011;7908;51.688;7.130;2022-12-10T07:48:53;76.93;;;36.00;;
15616;SDS011;7908;51.688;7.130;2022-12-10T07:51:21;72.77;;;35.33;;
15616;SDS011;7908;51.688;7.130;2022-12-10T07:53:51;70.63;;;32.63;;
15616;SDS011;7908;51.688;7.130;2022-12-10T07:56:21;74.40;;;36.23;;
15616;SDS011;7908;51.688;7.130;2022-12-10T07:58:51;80.50;;;40.37;;
15616;SDS011;7908;51.688;7.130;2022-12-10T08:01:21;72.03;;;34.80;;
15616;SDS011;7908;51.688;7.130;2022-12-10T08:03:52;80.53;;;34.50;;
15616;SDS011;7908;51.688;7.130;2022-12-10T08:06:23;81.73;;;33.70;;
15616;SDS011;7908;51.688;7.130;2022-12-10T08:08:53;72.17;;;33.90;;
15616;SDS011;7908;51.688;7.130;2022-12-10T08:11:23;69.13;;;31.10;;
15616;SDS011;7908;51.688;7.130;2022-12-10T08:13:53;87.87;;;35.03;;
15616;SDS011;7908;51.688;7.130;2022-12-10T08:16:23;93.40;;;38.30;;
15616;SDS011;7908;51.688;7.130;2022-12-10T08:18:53;109.57;;;42.50;;
15616;SDS011;7908;51.688;7.130;2022-12-10T08:21:24;102.43;;;40.73;;
15616;SDS011;7908;51.688;7.130;2022-12-10T08:23:55;105.73;;;45.63;;
15616;SDS011;7908;51.688;7.130;2022-12-10T08:26:26;122.17;;;45.90;;
15616;SDS011;7908;51.688;7.130;2022-12-10T08:28:56;123.50;;;46.13;;
15616;SDS011;7908;51.688;7.130;2022-12-10T08:31:26;117.40;;;47.33;;
15616;SDS011;7908;51.688;7.130;2022-12-10T08:34:02;127.83;;;48.83;;
15616;SDS011;7908;51.688;7.130;2022-12-10T08:36:34;143.90;;;54.73;;
15616;SDS011;7908;51.688;7.130;2022-12-10T08:39:03;149.53;;;56.83;;
15616;SDS011;7908;51.688;7.130;2022-12-10T08:41:32;161.47;;;58.00;;
15616;SDS011;7908;51.688;7.130;2022-12-10T08:44:02;139.40;;;51.10;;
15616;SDS011;7908;51.688;7.130;2022-12-10T08:46:30;160.27;;;67.83;;
15616;SDS011;7908;51.688;7.130;2022-12-10T08:49:02;158.83;;;64.33;;
15616;SDS011;7908;51.688;7.130;2022-12-10T08:51:31;140.67;;;58.30;;
15616;SDS011;7908;51.688;7.130;2022-12-10T08:54:00;140.17;;;53.97;;
15616;SDS011;7908;51.688;7.130;2022-12-10T08:56:30;125.37;;;48.43;;
15616;SDS011;7908;51.688;7.130;2022-12-10T08:59:00;138.37;;;54.67;;
15616;SDS011;7908;51.688;7.130;2022-12-10T09:01:29;122.50;;;45.80;;
15616;SDS011;7908;51.688;7.130;2022-12-10T09:03:59;130.07;;;48.53;;
15616;SDS011;7908;51.688;7.130;2022-12-10T09:06:28;120.17;;;46.47;;
15616;SDS011;7908;51.688;7.130;2022-12-10T09:08:57;120.47;;;52.77;;
15616;SDS011;7908;51.688;7.130;2022-12-10T09:11:26;119.63;;;51.27;;
15616;SDS011;7908;51.688;7.130;2022-12-10T09:13:58;130.70;;;50.80;;
15616;SDS011;7908;51.688;7.130;2022-12-10T09:16:31;120.47;;;46.47;;
15616;SDS011;7908;51.688;7.130;2022-12-10T09:19:03;124.57;;;50.80;;
15616;SDS011;7908;51.688;7.130;2022-12-10T09:21:32;133.07;;;55.43;;
15616;SDS011;7908;51.688;7.130;2022-12-10T09:24:01;116.03;;;49.17;;
15616;SDS011;7908;51.688;7.130;2022-12-10T09:26:30;116.20;;;51.23;;
15616;SDS011;7908;51.688;7.130;2022-12-10T09:29:05;112.23;;;50.80;;
15616;SDS011;7908;51.688;7.130;2022-12-10T09:31:34;117.33;;;52.73;;
15616;SDS011;7908;51.688;7.130;2022-12-10T09:34:02;134.77;;;58.17;;
15616;SDS011;7908;51.688;7.130;2022-12-10T09:36:31;121.97;;;57.37;;
15616;SDS011;7908;51.688;7.130;2022-12-10T09:39:01;108.43;;;52.60;;
15616;SDS011;7908;51.688;7.130;2022-12-10T09:44:29;107.47;;;50.07;;
15616;SDS011;7908;51.688;7.130;2022-12-10T09:47:07;102.93;;;48.23;;
15616;SDS011;7908;51.688;7.130;2022-12-10T09:49:40;104.07;;;49.23;;
15616;SDS011;7908;51.688;7.130;2022-12-10T09:52:23;107.37;;;50.07;;
15616;SDS011;7908;51.688;7.130;2022-12-10T09:54:56;98.53;;;48.60;;
15616;SDS011;7908;51.688;7.130;2022-12-10T09:57:29;96.67;;;46.07;;
15616;SDS011;7908;51.688;7.130;2022-12-10T10:00:05;97.93;;;48.70;;
15616;SDS011;7908;51.688;7.130;2022-12-10T10:02:45;92.73;;;44.17;;
15616;SDS011;7908;51.688;7.130;2022-12-10T10:05:16;93.13;;;45.23;;
15616;SDS011;7908;51.688;7.130;2022-12-10T10:07:49;103.53;;;51.60;;
15616;SDS011;7908;51.688;7.130;2022-12-10T10:10:25;106.30;;;52.17;;
15616;SDS011;7908;51.688;7.130;2022-12-10T10:12:55;103.20;;;52.53;;
15616;SDS011;7908;51.688;7.130;2022-12-10T10:15:31;95.27;;;50.93;;
15616;SDS011;7908;51.688;7.130;2022-12-10T10:18:09;113.57;;;59.33;;
15616;SDS011;7908;51.688;7.130;2022-12-10T10:20:42;108.23;;;53.97;;
15616;SDS011;7908;51.688;7.130;2022-12-10T10:23:12;97.47;;;51.27;;
15616;SDS011;7908;51.688;7.130;2022-12-10T10:25:46;95.83;;;50.70;;
15616;SDS011;7908;51.688;7.130;2022-12-10T10:28:18;105.63;;;54.23;;
15616;SDS011;7908;51.688;7.130;2022-12-10T10:30:50;107.40;;;53.23;;
15616;SDS011;7908;51.688;7.130;2022-12-10T10:33:21;101.43;;;53.53;;
15616;SDS011;7908;51.688;7.130;2022-12-10T10:35:56;111.13;;;56.43;;
15616;SDS011;7908;51.688;7.130;2022-12-10T10:38:26;102.97;;;55.27;;
15616;SDS011;7908;51.688;7.130;2022-12-10T10:40:57;110.13;;;55.03;;
15616;SDS011;7908;51.688;7.130;2022-12-10T10:43:31;105.53;;;53.97;;
15616;SDS011;7908;51.688;7.130;2022-12-10T10:46:06;112.67;;;57.53;;
15616;SDS011;7908;51.688;7.130;2022-12-10T10:48:40;101.77;;;54.40;;
15616;SDS011;7908;51.688;7.130;2022-12-10T10:51:14;111.30;;;56.60;;
15616;SDS011;7908;51.688;7.130;2022-12-10T10:53:47;105.57;;;52.10;;
15616;SDS011;7908;51.688;7.130;2022-12-10T10:56:20;104.87;;;54.93;;
15616;SDS011;7908;51.688;7.130;2022-12-10T10:58:57;104.53;;;53.10;;
15616;SDS011;7908;51.688;7.130;2022-12-10T11:04:17;109.20;;;59.10;;
15616;SDS011;7908;51.688;7.130;2022-12-10T11:06:54;97.17;;;51.87;;
15616;SDS011;7908;51.688;7.130;2022-12-10T11:09:26;103.00;;;53.67;;
15616;SDS011;7908;51.688;7.130;2022-12-10T11:11:59;106.43;;;55.30;;
15616;SDS011;7908;51.688;7.130;2022-12-10T11:14:38;100.77;;;52.53;;
15616;SDS011;7908;51.688;7.130;2022-12-10T11:17:18;100.77;;;52.73;;
15616;SDS011;7908;51.688;7.130;2022-12-10T11:19:54;100.83;;;54.57;;
15616;SDS011;7908;51.688;7.130;2022-12-10T11:22:31;93.93;;;48.40;;
15616;SDS011;7908;51.688;7.130;2022-12-10T11:25:01;111.90;;;53.67;;
15616;SDS011;7908;51.688;7.130;2022-12-10T11:27:38;103.43;;;53.50;;
15616;SDS011;7908;51.688;7.130;2022-12-10T11:30:18;100.37;;;52.87;;
15616;SDS011;7908;51.688;7.130;2022-12-10T11:32:59;101.13;;;52.80;;
15616;SDS011;7908;51.688;7.130;2022-12-10T11:35:43;99.33;;;50.13;;
15616;SDS011;7908;51.688;7.130;2022-12-10T11:38:24;95.73;;;51.93;;
15616;SDS011;7908;51.688;7.130;2022-12-10T11:40:59;96.27;;;51.47;;
15616;SDS011;7908;51.688;7.130;2022-12-10T11:43:38;102.23;;;52.20;;
15616;SDS011;7908;51.688;7.130;2022-12-10T11:46:24;93.60;;;51.13;;
15616;SDS011;7908;51.688;7.130;2022-12-10T11:49:12;94.17;;;49.27;;
15616;SDS011;7908;51.688;7.130;2022-12-10T11:51:49;90.13;;;49.43;;
15616;SDS011;7908;51.688;7.130;2022-12-10T11:54:42;117.20;;;56.13;;
15616;SDS011;7908;51.688;7.130;2022-12-10T11:57:33;101.87;;;52.40;;
15616;SDS011;7908;51.688;7.130;2022-12-10T12:00:19;140.97;;;70.23;;
15616;SDS011;7908;51.688;7.130;2022-12-10T12:03:08;125.73;;;69.43;;
15616;SDS011;7908;51.688;7.130;2022-12-10T12:06:00;105.73;;;58.87;;
15616;SDS011;7908;51.688;7.130;2022-12-10T12:08:41;102.80;;;55.07;;
15616;SDS011;7908;51.688;7.130;2022-12-10T12:11:24;108.63;;;61.77;;
15616;SDS011;7908;51.688;7.130;2022-12-10T12:14:01;106.57;;;60.60;;
15616;SDS011;7908;51.688;7.130;2022-12-10T12:16:37;105.67;;;61.10;;
15616;SDS011;7908;51.688;7.130;2022-12-10T12:19:11;92.73;;;58.77;;
15616;SDS011;7908;51.688;7.130;2022-12-10T12:21:50;99.27;;;58.90;;
15616;SDS011;7908;51.688;7.130;2022-12-10T12:24:33;99.60;;;56.97;;
15616;SDS011;7908;51.688;7.130;2022-12-10T12:27:11;92.27;;;52.00;;
15616;SDS011;7908;51.688;7.130;2022-12-10T12:30:04;94.60;;;52.73;;
15616;SDS011;7908;51.688;7.130;2022-12-10T12:32:55;82.73;;;48.60;;
15616;SDS011;7908;51.688;7.130;2022-12-10T12:35:36;102.67;;;58.57;;
15616;SDS011;7908;51.688;7.130;2022-12-10T12:41:10;99.17;;;54.90;;
15616;SDS011;7908;51.688;7.130;2022-12-10T12:43:46;100.40;;;58.97;;
15616;SDS011;7908;51.688;7.130;2022-12-10T12:46:25;111.97;;;63.03;;
15616;SDS011;7908;51.688;7.130;2022-12-10T12:49:06;98.07;;;55.13;;
15616;SDS011;7908;51.688;7.130;2022-12-10T12:51:50;101.53;;;53.17;;
15616;SDS011;7908;51.688;7.130;2022-12-10T12:54:27;94.67;;;53.63;;
15616;SDS011;7908;51.688;7.130;2022-12-10T12:57:04;102.07;;;57.70;;
15616;SDS011;7908;51.688;7.130;2022-12-10T12:59:39;112.90;;;57.77;;
15616;SDS011;7908;51.688;7.130;2022-12-10T13:02:50;163.40;;;84.37;;
15616;SDS011;7908;51.688;7.130;2022-12-10T13:05:33;125.70;;;66.27;;
15616;SDS011;7908;51.688;7.130;2022-12-10T13:11:29;92.40;;;48.43;;
15616;SDS011;7908;51.688;7.130;2022-12-10T13:17:00;104.13;;;52.67;;
15616;SDS011;7908;51.688;7.130;2022-12-10T13:23:04;86.83;;;45.93;;
15616;SDS011;7908;51.688;7.130;2022-12-10T13:25:55;76.30;;;41.40;;
15616;SDS011;7908;51.688;7.130;2022-12-10T13:28:40;91.93;;;47.60;;
15616;SDS011;7908;51.688;7.130;2022-12-10T13:31:22;87.03;;;46.03;;
15616;SDS011;7908;51.688;7.130;2022-12-10T13:34:20;88.67;;;50.77;;
15616;SDS011;7908;51.688;7.130;2022-12-10T13:37:04;81.87;;;43.93;;
15616;SDS011;7908;51.688;7.130;2022-12-10T13:39:58;93.37;;;42.30;;
15616;SDS011;7908;51.688;7.130;2022-12-10T13:42:57;96.57;;;45.87;;
15616;SDS011;7908;51.688;7.130;2022-12-10T13:46:23;92.87;;;45.23;;
15616;SDS011;7908;51.688;7.130;2022-12-10T13:49:15;101.63;;;49.70;;
15616;SDS011;7908;51.688;7.130;2022-12-10T13:51:53;96.73;;;52.63;;
15616;SDS011;7908;51.688;7.130;2022-12-10T13:54:34;86.73;;;48.03;;
15616;SDS011;7908;51.688;7.130;2022-12-10T13:57:30;90.77;;;46.00;;
15616;SDS011;7908;51.688;7.130;2022-12-10T14:00:14;83.40;;;44.97;;
15616;SDS011;7908;51.688;7.130;2022-12-10T14:05:55;87.83;;;50.50;;
15616;SDS011;7908;51.688;7.130;2022-12-10T14:08:53;82.77;;;47.77;;
15616;SDS011;7908;51.688;7.130;2022-12-10T14:11:31;94.00;;;52.00;;
15616;SDS011;7908;51.688;7.130;2022-12-10T14:14:05;81.97;;;47.23;;
15616;SDS011;7908;51.688;7.130;2022-12-10T14:16:44;91.23;;;49.23;;
15616;SDS011;7908;51.688;7.130;2022-12-10T14:19:18;79.57;;;43.17;;
15616;SDS011;7908;51.688;7.130;2022-12-10T14:21:53;80.13;;;45.03;;
15616;SDS011;7908;51.688;7.130;2022-12-10T14:24:42;82.47;;;43.27;;
15616;SDS011;7908;51.688;7.130;2022-12-10T14:27:20;95.03;;;51.53;;
15616;SDS011;7908;51.688;7.130;2022-12-10T14:30:04;87.23;;;45.60;;
15616;SDS011;7908;51.688;7.130;2022-12-10T14:32:43;86.13;;;46.13;;
15616;SDS011;7908;51.688;7.130;2022-12-10T14:35:27;90.43;;;46.47;;
15616;SDS011;7908;51.688;7.130;2022-12-10T14:37:57;86.27;;;45.20;;
15616;SDS011;7908;51.688;7.130;2022-12-10T14:40:37;91.67;;;48.77;;
15616;SDS011;7908;51.688;7.130;2022-12-10T14:43:09;116.67;;;53.83;;
15616;SDS011;7908;51.688;7.130;2022-12-10T14:45:45;168.23;;;74.20;;
15616;SDS011;7908;51.688;7.130;2022-12-10T14:48:24;165.03;;;70.73;;
15616;SDS011;7908;51.688;7.130;2022-12-10T14:51:04;123.50;;;57.67;;
15616;SDS011;7908;51.688;7.130;2022-12-10T14:53:56;101.87;;;49.47;;
15616;SDS011;7908;51.688;7.130;2022-12-10T14:56:36;92.10;;;48.80;;
15616;SDS011;7908;51.688;7.130;2022-12-10T14:59:15;79.30;;;46.07;;
15616;SDS011;7908;51.688;7.130;2022-12-10T15:01:54;106.33;;;54.47;;
15616;SDS011;7908;51.688;7.130;2022-12-10T15:04:39;94.20;;;49.70;;
15616;SDS011;7908;51.688;7.130;2022-12-10T15:07:14;95.30;;;48.93;;
15616;SDS011;7908;51.688;7.130;2022-12-10T15:09:47;79.60;;;42.97;;
15616;SDS011;7908;51.688;7.130;2022-12-10T15:12:31;90.50;;;47.87;;
15616;SDS011;7908;51.688;7.130;2022-12-10T15:15:12;70.13;;;40.00;;
15616;SDS011;7908;51.688;7.130;2022-12-10T15:17:57;69.63;;;38.83;;
15616;SDS011;7908;51.688;7.130;2022-12-10T15:20:37;72.33;;;41.03;;
15616;SDS011;7908;51.688;7.130;2022-12-10T15:23:25;74.23;;;41.97;;
15616;SDS011;7908;51.688;7.130;2022-12-10T15:26:14;73.43;;;40.43;;
15616;SDS011;7908;51.688;7.130;2022-12-10T15:32:10;84.17;;;45.87;;
15616;SDS011;7908;51.688;7.130;2022-12-10T15:34:47;87.63;;;47.20;;